^^
Datos históricos de la estación: Murcia-Puente Tocinos
Diario Informe para Febrero 13, 2019 Unidades:  Ingés    Métrico   Ambas
Diario Semanal Mensual Anual
  Máxima: Mínima: Promedio:
Temperatura: 75.6 °F 58.8 °F 66 °F
Punto de rocio: 58.6 °F 50 °F 54 °F
Humedad: 88.8% 41.2% 67%
Velocidad viento: 10mph 0mph 4.2mph
Racha viento: 16.3mph - -
Viento- - ENE
Presión: 30.1 in 30 in -
Precipitación: 0 in    
 
 
Tabla de datos para Febrero 13, 2019
Hora Temperatura Punto de rocio Presión Viento Velocidad viento Racha viento Humedad Intensidad lluvia(por hora) Nubes
00:04 65.8 °F 55 °F 30.1 in ESE 4 mph 7 mph 68% 0 in
00:09 65.8 °F 55 °F 30.1 in ESE 3.6 mph 5 mph 68% 0 in
00:14 65.8 °F 55.2 °F 30.1 in Este 2.4 mph 5.2 mph 68.5% 0 in
00:19 65.7 °F 55.2 °F 30.1 in ENE 2.4 mph 5 mph 69% 0 in
00:24 65.5 °F 55.4 °F 30.1 in Este 2.4 mph 5 mph 69.8% 0 in
00:29 65.3 °F 55.4 °F 30.1 in NE 2.4 mph 4.7 mph 70% 0 in
00:34 64.9 °F 55.2 °F 30.1 in NE 2.4 mph 5 mph 70.6% 0 in
00:39 64.8 °F 55 °F 30.1 in NE 2.7 mph 5.8 mph 71% 0 in
00:44 64.4 °F 55 °F 30.1 in NE 3.6 mph 6 mph 71.4% 0 in
00:49 64.2 °F 55 °F 30.1 in NE 3.6 mph 5.8 mph 72% 0 in
00:54 64 °F 54.9 °F 30.1 in NE 3.6 mph 6 mph 72% 0 in
00:59 64 °F 54.7 °F 30.1 in NE 3.7 mph 6 mph 71.7% 0 in
01:04 64 °F 54.3 °F 30.1 in NE 4 mph 6.9 mph 70.6% 0 in
01:09 64 °F 54.7 °F 30.1 in NE 4.3 mph 8.1 mph 71.6% 0 in
01:14 63.9 °F 54.9 °F 30.1 in NE 4.7 mph 8 mph 73% 0 in
01:19 63.3 °F 55.2 °F 30.1 in NE 4.7 mph 8.1 mph 74.5% 0 in
01:24 63.1 °F 55.2 °F 30.1 in NE 4.7 mph 8 mph 75.3% 0 in
01:29 63 °F 55.2 °F 30.1 in NE 4.7 mph 7 mph 76% 0 in
01:34 63 °F 55.2 °F 30.1 in NNE 4.7 mph 8.1 mph 76% 0 in
01:39 62.8 °F 55.4 °F 30.1 in NE 4.7 mph 8 mph 76.8% 0 in
01:44 62.6 °F 55.4 °F 30.1 in NE 4.7 mph 7 mph 77% 0 in
01:49 62.4 °F 55.2 °F 30.1 in NNE 4.7 mph 7.4 mph 77.2% 0 in
01:54 62.2 °F 55.4 °F 30.1 in NNE 4.7 mph 7 mph 78% 0 in
01:59 62.1 °F 55.2 °F 30.1 in NNE 4.5 mph 7 mph 78% 0 in
02:04 62.1 °F 55.4 °F 30.1 in NNE 4.3 mph 6.4 mph 79% 0 in
02:09 61.9 °F 55.2 °F 30.1 in NNE 4.2 mph 6 mph 79% 0 in
02:14 61.9 °F 55.2 °F 30.1 in NNE 4 mph 5 mph 79% 0 in
02:19 61.9 °F 55.2 °F 30.1 in North 3.1 mph 5 mph 79% 0 in
02:24 61.9 °F 55.2 °F 30.1 in NNE 1.8 mph 5.2 mph 79% 0 in
02:29 61.7 °F 55.6 °F 30.1 in NE 2.1 mph 5 mph 80% 0 in
02:34 61.5 °F 55.4 °F 30.1 in NE 2.4 mph 5.2 mph 80.5% 0 in
02:39 61.5 °F 55.6 °F 30.1 in NE 2.6 mph 5.4 mph 81% 0 in
02:44 61.5 °F 55.6 °F 30.1 in NNE 2.9 mph 8.1 mph 81.1% 0 in
02:49 61.3 °F 55.9 °F 30.1 in NNE 3 mph 8 mph 82% 0 in
02:54 61.3 °F 55.8 °F 30.1 in NE 3.1 mph 6.9 mph 82% 0 in
02:59 61.2 °F 55.9 °F 30.1 in NE 3.7 mph 8.1 mph 82.7% 0 in
03:04 61.2 °F 55.9 °F 30.1 in NE 4.3 mph 8 mph 83% 0 in
03:09 61.2 °F 55.9 °F 30.1 in NE 4.2 mph 6 mph 83% 0 in
03:14 61.2 °F 55.9 °F 30.1 in NE 4 mph 5.4 mph 83% 0 in
03:19 61.2 °F 55.9 °F 30.1 in NNE 3.6 mph 6.2 mph 83% 0 in
03:24 61.2 °F 56.1 °F 30.1 in NE 2.9 mph 6 mph 83.6% 0 in
03:29 61 °F 56.1 °F 30.1 in NE 3.3 mph 6 mph 84% 0 in
03:34 61 °F 56.1 °F 30.1 in NE 4 mph 6 mph 84% 0 in
03:39 61 °F 56.1 °F 30.1 in NE 3.2 mph 5 mph 84% 0 in
03:44 61 °F 56.1 °F 30.1 in NE 2 mph 5 mph 84% 0 in
03:49 61 °F 56.1 °F 30.1 in Este 1.7 mph 4 mph 84% 0 in
03:54 60.8 °F 55.9 °F 30.1 in NE 1.4 mph 5 mph 84% 0 in
03:59 60.6 °F 56.1 °F 30.1 in NE 2.1 mph 5.8 mph 84.8% 0 in
04:04 60.6 °F 56.1 °F 30.1 in NE 2.9 mph 6 mph 85% 0 in
04:09 60.4 °F 55.9 °F 30.1 in ENE 3 mph 6 mph 85% 0 in
04:14 60.4 °F 55.9 °F 30.1 in NE 3.1 mph 5 mph 85% 0 in
04:19 60.3 °F 55.8 °F 30.1 in ENE 2.6 mph 5.2 mph 84.9% 0 in
04:24 60.3 °F 55.2 °F 30.1 in Este 1.8 mph 5 mph 83.5% 0 in
04:29 60.3 °F 54.9 °F 30.1 in Este 1.9 mph 5 mph 82.6% 0 in
04:34 60.1 °F 53.8 °F 30.1 in Este 2 mph 5 mph 79.7% 0 in
04:39 59.7 °F 52.9 °F 30.1 in Este 2 mph 5 mph 78.4% 0 in
04:44 59.7 °F 52.9 °F 30.1 in Este 2 mph 3.5 mph 78% 0 in
04:49 59.7 °F 52.5 °F 30.1 in NE 1.7 mph 3.5 mph 77.3% 0 in
04:54 59.9 °F 52.7 °F 30.1 in NE 1.4 mph 4 mph 77.2% 0 in
04:59 60.1 °F 53.1 °F 30.1 in NE 1.9 mph 4 mph 78% 0 in
05:04 60.1 °F 53.1 °F 30.1 in Este 2.4 mph 4 mph 77.5% 0 in
05:09 60.1 °F 52.9 °F 30.1 in NE 2.2 mph 4.7 mph 77.5% 0 in
05:14 59.7 °F 53.1 °F 30.1 in ENE 2 mph 5 mph 78.6% 0 in
05:19 59.5 °F 52.2 °F 30.1 in NE 2.2 mph 5 mph 76.6% 0 in
05:24 59.4 °F 51.8 °F 30.1 in NE 2.4 mph 5 mph 76% 0 in
05:29 59.4 °F 51.8 °F 30.1 in NE 2.2 mph 5 mph 76% 0 in
05:34 59.4 °F 52 °F 30.1 in NE 2 mph 5.2 mph 76.7% 0 in
05:39 59.5 °F 52.3 °F 30.1 in NE 2.4 mph 5.8 mph 77% 0 in
05:44 59.5 °F 52.2 °F 30.1 in ENE 2.9 mph 6 mph 76.7% 0 in
05:49 59.5 °F 52.3 °F 30.1 in NNE 2.3 mph 4.6 mph 77% 0 in
05:54 59.4 °F 52.5 °F 30.1 in NNE 1.4 mph 5 mph 78% 0 in
05:59 59.2 °F 52.3 °F 30.1 in NNE 1.7 mph 5 mph 78% 0 in
06:04 59.2 °F 52.7 °F 30.1 in NNE 2 mph 3.5 mph 79% 0 in
06:09 59 °F 52.7 °F 30.1 in NNE 1.7 mph 4 mph 79.5% 0 in
06:14 59.2 °F 53.6 °F 30.1 in ENE 1.4 mph 5.2 mph 81.8% 0 in
06:19 59.2 °F 53.1 °F 30.1 in NNE 1.6 mph 5 mph 80.4% 0 in
06:24 59 °F 53.1 °F 30.1 in NNE 2 mph 3.5 mph 80.9% 0 in
06:29 59 °F 53.4 °F 30.1 in NNE 1.2 mph 3 mph 82% 0 in
06:34 59 °F 53.4 °F 30.1 in Calm   3 mph 82% 0 in
06:39 58.8 °F 53.6 °F 30.1 in Calm   3 mph 82.9% 0 in
06:44 58.8 °F 53.8 °F 30.1 in Calm   3.5 mph 83.4% 0 in
06:49 58.8 °F 54 °F 30.1 in Calm   3.5 mph 84% 0 in
06:54 58.8 °F 54.1 °F 30.1 in Calm   2 mph 84.5% 0 in
06:59 58.8 °F 54.3 °F 30.1 in Calm   3.1 mph 85% 0 in
07:04 59 °F 54.7 °F 30.1 in Calm   4.6 mph 85.8% 0 in
07:09 59.2 °F 55 °F 30.1 in NE 0.9 mph 5 mph 86.5% 0 in
07:14 59.2 °F 55.2 °F 30.1 in NE 2.4 mph 5 mph 87% 0 in
07:19 59.2 °F 55.4 °F 30.1 in NE 2.4 mph 5.2 mph 87.2% 0 in
07:24 59.2 °F 55.6 °F 30.1 in NE 2.4 mph 5 mph 88% 0 in
07:29 59.2 °F 55.6 °F 30.1 in NE 2.2 mph 5 mph 88% 0 in
07:34 59.4 °F 55.8 °F 30.1 in NE 2 mph 4.6 mph 88.2% 0 in
07:39 59.4 °F 55.9 °F 30.1 in NE 2.2 mph 5 mph 88.3% 0 in
07:44 59.4 °F 56.1 °F 30.1 in ENE 2.4 mph 4 mph 88.8% 0 in
07:49 59.5 °F 56.1 °F 30.1 in Este 1.5 mph 3.5 mph 88% 0 in
07:54 59.9 °F 56.3 °F 30.1 in Calm   3.1 mph 88% 0 in
07:59 60.3 °F 56.3 °F 30.1 in North 0.7 mph 3.5 mph 87% 0 in
08:04 60.4 °F 56.1 °F 30.1 in North 1.4 mph 3 mph 86% 0 in
08:09 60.6 °F 56.5 °F 30.1 in North 0.9 mph 2.9 mph 86.4% 0 in
08:14 61 °F 56.8 °F 30.1 in Calm   3 mph 86% 0 in
08:19 61.2 °F 56.8 °F 30.1 in Calm   3.5 mph 85.4% 0 in
08:24 61.5 °F 57 °F 30.1 in Calm   3 mph 85% 0 in
08:29 61.9 °F 57.2 °F 30.1 in Calm   4.6 mph 84.7% 0 in
08:34 62.2 °F 57.6 °F 30.1 in Calm   5 mph 84.7% 0 in
08:39 62.8 °F 57.9 °F 30.1 in Calm   3.1 mph 84% 0 in
08:44 63.1 °F 57.7 °F 30.1 in Calm   4 mph 82.5% 0 in
08:49 63.5 °F 57.9 °F 30.1 in NE 0.7 mph 4.6 mph 82.2% 0 in
08:54 63.7 °F 58.1 °F 30.1 in ENE 1.8 mph 5 mph 82% 0 in
08:59 63.7 °F 58.1 °F 30.1 in Este 2.1 mph 5.2 mph 81.9% 0 in
09:04 63.9 °F 58.5 °F 30.1 in ENE 2.4 mph 5 mph 82.5% 0 in
09:09 64.2 °F 58.5 °F 30.1 in Este 2.2 mph 5 mph 81.6% 0 in
09:14 64.6 °F 58.5 °F 30.1 in NE 1.8 mph 5.9 mph 80.5% 0 in
09:19 64.8 °F 58.5 °F 30.1 in NNE 2.3 mph 6.2 mph 80.1% 0 in
09:24 64.9 °F 58.5 °F 30.1 in Este 3.1 mph 6 mph 79.7% 0 in
09:29 65.3 °F 58.6 °F 30.1 in NE 2.8 mph 5.2 mph 78.9% 0 in
09:34 65.7 °F 58.5 °F 30.1 in NE 2.4 mph 5.2 mph 77.2% 0 in
09:39 65.7 °F 58.3 °F 30.1 in NNE 2.6 mph 5.9 mph 77% 0 in
09:44 65.3 °F 57.9 °F 30.1 in NNE 2.9 mph 6 mph 77.3% 0 in
09:49 64.9 °F 57.9 °F 30.1 in ENE 2.9 mph 6 mph 77.6% 0 in
09:54 64.9 °F 57.6 °F 30.1 in ENE 2.9 mph 5.9 mph 77% 0 in
09:59 64.8 °F 57.4 °F 30.1 in ENE 3 mph 6 mph 77% 0 in
10:04 64.8 °F 57.4 °F 30.1 in ENE 3.1 mph 5 mph 77% 0 in
10:09 64.8 °F 57.4 °F 30.1 in NE 2.6 mph 5 mph 77% 0 in
10:14 64.9 °F 57.4 °F 30.1 in NE 1.8 mph 6.9 mph 76% 0 in
10:19 65.1 °F 56.5 °F 30.1 in NE 2.2 mph 7 mph 73.8% 0 in
10:24 64.9 °F 56.1 °F 30.1 in NE 2.9 mph 6 mph 73% 0 in
10:29 65.1 °F 56.5 °F 30.1 in NE 2.5 mph 5.9 mph 73.5% 0 in
10:34 65.3 °F 56.1 °F 30.1 in ENE 2 mph 6.2 mph 72.2% 0 in
10:39 65.5 °F 56.3 °F 30.1 in NE 2.6 mph 6.9 mph 72.6% 0 in
10:44 65.5 °F 57 °F 30.1 in NE 3.6 mph 8.5 mph 74.2% 0 in
10:49 65.5 °F 57 °F 30.1 in NE 4.2 mph 9 mph 74.1% 0 in
10:54 65.1 °F 56.7 °F 30.1 in NNE 5.2 mph 9 mph 74% 0 in
10:59 65.1 °F 56.7 °F 30.1 in ENE 4.7 mph 6 mph 74% 0 in
11:04 65.5 °F 56.1 °F 30.1 in NE 4 mph 8.5 mph 72% 0 in
11:09 65.7 °F 55.9 °F 30.1 in ENE 3.9 mph 9 mph 70.9% 0 in
11:14 65.8 °F 55.9 °F 30.1 in NE 3.6 mph 6 mph 70.1% 0 in
11:19 66 °F 55 °F 30.1 in NE 3.4 mph 8.1 mph 67.8% 0 in
11:24 66.2 °F 55 °F 30.1 in NE 3.1 mph 8 mph 67.2% 0 in
11:29 66.4 °F 54.9 °F 30.1 in NE 3.7 mph 9.7 mph 66.5% 0 in
11:34 66.4 °F 54.7 °F 30.1 in ENE 4.7 mph 10 mph 66% 0 in
11:39 66.4 °F 54.5 °F 30.1 in Este 4.9 mph 9.2 mph 65.6% 0 in
11:44 66.4 °F 54.3 °F 30.1 in ESE 5.2 mph 9.2 mph 65% 0 in
11:49 66.6 °F 54.3 °F 30.1 in SE 5.2 mph 9 mph 64.7% 0 in
11:54 66.6 °F 54.1 °F 30.1 in SE 5.2 mph 8 mph 64% 0 in
11:59 66.6 °F 54 °F 30.1 in ESE 5 mph 9.2 mph 63.6% 0 in
12:04 66.6 °F 54 °F 30.1 in ESE 4.7 mph 9 mph 63.8% 0 in
12:09 66.7 °F 54 °F 30.1 in ESE 4.9 mph 9.2 mph 63.6% 0 in
12:14 66.6 °F 53.4 °F 30.1 in Este 5.2 mph 10.4 mph 62.5% 0 in
12:19 66.6 °F 53.4 °F 30.1 in Este 5.5 mph 10 mph 62.5% 0 in
12:24 66.6 °F 53.2 °F 30.1 in ESE 5.9 mph 9 mph 62% 0 in
12:29 66.9 °F 53.4 °F 30.1 in SE 5.7 mph 8.1 mph 61.8% 0 in
12:34 67.3 °F 53.4 °F 30.1 in SE 5.4 mph 8.1 mph 61% 0 in
12:39 67.3 °F 53.4 °F 30.1 in SE 5.3 mph 10.4 mph 61% 0 in
12:44 67.5 °F 53.4 °F 30.1 in SE 5.2 mph 10 mph 61% 0 in
12:49 67.6 °F 54 °F 30.1 in ESE 4.8 mph 9.2 mph 61.3% 0 in
12:54 68 °F 53.8 °F 30.1 in ESE 4.3 mph 10.7 mph 60.6% 0 in
12:59 68.4 °F 53.8 °F 30.1 in SE 5.1 mph 11 mph 60% 0 in
13:04 68.4 °F 53.8 °F 30.1 in Sur 5.9 mph 11 mph 59.5% 0 in
13:09 68.4 °F 53.8 °F 30.1 in SE 5.7 mph 11.5 mph 59.5% 0 in
13:14 68.2 °F 53.4 °F 30.1 in Sur 5.4 mph 12 mph 59% 0 in
13:19 68.5 °F 53.6 °F 30.1 in ESE 5.6 mph 11.5 mph 59.1% 0 in
13:24 68.9 °F 53.6 °F 30.1 in SSE 5.9 mph 12 mph 58.2% 0 in
13:29 69.1 °F 53.6 °F 30.1 in SO 5.7 mph 9 mph 57.7% 0 in
13:34 68.9 °F 53.4 °F 30.1 in Este 5.2 mph 12.7 mph 58% 0 in
13:39 69.1 °F 54 °F 30.1 in Este 5.3 mph 13 mph 58.5% 0 in
13:44 69.8 °F 54 °F 30.1 in ESE 5.4 mph 12 mph 57.2% 0 in
13:49 70 °F 53.6 °F 30.1 in SE 5.3 mph 12 mph 56.1% 0 in
13:54 70.2 °F 53.8 °F 30.1 in NE 5.2 mph 10.4 mph 56.3% 0 in
13:59 70.3 °F 53.6 °F 30.1 in Este 5.3 mph 10.7 mph 55.7% 0 in
14:04 69.8 °F 53.2 °F 30.1 in ENE 5.4 mph 11 mph 55.5% 0 in
14:09 69.6 °F 53.1 °F 30.1 in Este 5.3 mph 11 mph 55.8% 0 in
14:14 70.2 °F 53.6 °F 30.1 in NO 5.2 mph 9 mph 55.7% 0 in
14:19 71.1 °F 53.8 °F 30.1 in ENE 5 mph 9.2 mph 54.5% 0 in
14:24 71.4 °F 53.8 °F 30 in Este 4.7 mph 9 mph 53.6% 0 in
14:29 71.8 °F 53.6 °F 30 in NE 4.5 mph 13 mph 52.8% 0 in
14:34 71.8 °F 53.6 °F 30 in NE 4.3 mph 13 mph 52.8% 0 in
14:39 71.6 °F 53.1 °F 30 in NNE 4.7 mph 10 mph 52% 0 in
14:44 71.4 °F 52.9 °F 30 in NO 5.2 mph 10.4 mph 52.1% 0 in
14:49 71.8 °F 52.7 °F 30 in ENE 4.8 mph 10.4 mph 51.3% 0 in
14:54 72 °F 52.5 °F 30 in NNO 4.3 mph 10 mph 50.6% 0 in
14:59 72.3 °F 52.9 °F 30 in NE 4.5 mph 11.8 mph 50.6% 0 in
15:04 72.3 °F 52.5 °F 30 in NE 4.7 mph 12 mph 49.9% 0 in
15:09 72.3 °F 52.5 °F 30 in NNE 5.3 mph 15 mph 49.7% 0 in
15:14 72.5 °F 52.5 °F 30 in NE 6.2 mph 15 mph 49.4% 0 in
15:19 72.9 °F 52.2 °F 30 in ENE 5.6 mph 9.2 mph 48.4% 0 in
15:24 72.9 °F 52 °F 30 in Este 4.7 mph 11.8 mph 47.8% 0 in
15:29 73.2 °F 52.2 °F 30 in NE 5.3 mph 13.5 mph 47.8% 0 in
15:34 73.2 °F 52 °F 30 in NE 6.2 mph 14 mph 47.2% 0 in
15:39 73.6 °F 51.6 °F 30 in NE 5.8 mph 14 mph 46.1% 0 in
15:44 73.9 °F 51.6 °F 30 in NE 5.2 mph 11.8 mph 45.7% 0 in
15:49 73.9 °F 51.4 °F 30 in ENE 5.6 mph 13.7 mph 45.3% 0 in
15:54 73.8 °F 51.1 °F 30 in NE 6.2 mph 14 mph 44.9% 0 in
15:59 73.9 °F 50.7 °F 30 in ENE 6.8 mph 13 mph 44.4% 0 in
16:04 73.9 °F 50.5 °F 30 in ENE 7.4 mph 13.8 mph 44% 0 in
16:09 73.9 °F 50.5 °F 30 in ESE 6.3 mph 14 mph 43.7% 0 in
16:14 74.1 °F 50.2 °F 30 in NE 4.7 mph 14 mph 43% 0 in
16:19 74.5 °F 50.4 °F 30 in ENE 5.6 mph 12 mph 42.7% 0 in
16:24 74.5 °F 50.2 °F 30 in ENE 6.9 mph 10.4 mph 42.7% 0 in
16:29 74.3 °F 50.2 °F 30 in NNE 6.1 mph 10 mph 42.7% 0 in
16:34 74.7 °F 50 °F 30 in North 4.7 mph 7 mph 42% 0 in
16:39 75 °F 50.4 °F 30 in ENE 4 mph 7 mph 41.9% 0 in
16:44 75.6 °F 50.4 °F 30 in NE 2.9 mph 12.7 mph 41.2% 0 in
16:49 75.2 °F 50.4 °F 30 in NE 4.4 mph 13 mph 41.7% 0 in
16:54 75 °F 50.7 °F 30 in NNE 6.9 mph 13 mph 42.6% 0 in
16:59 75.2 °F 51.3 °F 30 in ENE 6.9 mph 12 mph 43% 0 in
17:04 75.6 °F 51.6 °F 30 in Este 6.9 mph 13 mph 43.2% 0 in
17:09 75.2 °F 51.8 °F 30 in Este 6.9 mph 13 mph 44% 0 in
17:14 75 °F 52 °F 30 in ESE 6.9 mph 13.7 mph 44.6% 0 in
17:19 75 °F 52.2 °F 30 in ESE 7.1 mph 15 mph 45% 0 in
17:24 74.8 °F 52.2 °F 30 in ESE 7.4 mph 15 mph 45.2% 0 in
17:29 75 °F 52.2 °F 30 in SE 7.5 mph 13.8 mph 45.1% 0 in
17:34 74.7 °F 52.2 °F 30 in SE 7.6 mph 14 mph 45.4% 0 in
17:39 74.3 °F 52.2 °F 30 in ESE 8 mph 14 mph 46% 0 in
17:44 74.5 °F 52.3 °F 30 in SE 8.5 mph 14 mph 46% 0 in
17:49 74.8 °F 52.3 °F 30 in ESE 7.8 mph 13 mph 45.5% 0 in
17:54 74.8 °F 52.2 °F 30 in ESE 6.9 mph 12 mph 45% 0 in
17:59 74.8 °F 52 °F 30 in ESE 6.9 mph 12 mph 45% 0 in
18:04 74.3 °F 51.4 °F 30 in ESE 6.9 mph 13 mph 44.9% 0 in
18:09 73.9 °F 51.4 °F 30 in ESE 7.2 mph 13 mph 45.1% 0 in
18:14 73.9 °F 51.3 °F 30 in Este 7.6 mph 13 mph 45% 0 in
18:19 73.8 °F 51.6 °F 30 in ESE 7.5 mph 13.8 mph 45.8% 0 in
18:24 73.4 °F 51.4 °F 30 in ESE 7.4 mph 14 mph 46% 0 in
18:29 73.2 °F 51.6 °F 30 in ESE 7.9 mph 16.3 mph 46.7% 0 in
18:34 73 °F 51.8 °F 30 in ESE 8.7 mph 16.1 mph 47.3% 0 in
18:39 73.2 °F 52 °F 30 in ENE 8 mph 13.7 mph 47.1% 0 in
18:44 73.2 °F 52.2 °F 30 in NE 6.9 mph 14 mph 47.6% 0 in
18:49 72.5 °F 52 °F 30 in ENE 7.1 mph 16.3 mph 48.4% 0 in
18:54 72.1 °F 52 °F 30 in NE 7.4 mph 16.1 mph 49% 0 in
18:59 71.6 °F 51.8 °F 30 in NE 8.7 mph 16 mph 49.9% 0 in
19:04 71.2 °F 51.6 °F 30 in NE 10 mph 15 mph 50% 0 in
19:09 71.2 °F 51.6 °F 30 in NE 9.5 mph 16.3 mph 50% 0 in
19:14 71.1 °F 52 °F 30 in ENE 8.7 mph 16.1 mph 50.8% 0 in
19:19 71.2 °F 52.2 °F 30 in ENE 8.2 mph 16 mph 51.1% 0 in
19:24 71.2 °F 52.3 °F 30 in ENE 7.4 mph 16.3 mph 51.4% 0 in
19:29 71.1 °F 52.2 °F 30 in ENE 7.4 mph 16 mph 51.6% 0 in
19:34 70.7 °F 52.2 °F 30 in NE 7.4 mph 13.5 mph 52% 0 in
19:39 70.5 °F 52 °F 30 in ENE 7.2 mph 13.8 mph 52% 0 in
19:44 70.2 °F 52.2 °F 30 in ENE 6.9 mph 14 mph 52.8% 0 in
19:49 70.2 °F 52.3 °F 30 in ENE 7.1 mph 13 mph 53.3% 0 in
19:54 69.8 °F 52.3 °F 30 in ENE 7.4 mph 14.5 mph 54% 0 in
19:59 69.6 °F 52.5 °F 30 in NE 7 mph 15 mph 54.6% 0 in
20:04 69.4 °F 52.7 °F 30 in NE 6.4 mph 15 mph 55.4% 0 in
20:09 69.3 °F 52.9 °F 30 in NE 7.2 mph 15.2 mph 56.1% 0 in
20:14 68.9 °F 53.1 °F 30 in ENE 8.5 mph 15 mph 57% 0 in
20:19 68.7 °F 53.1 °F 30 in NE 7.9 mph 13 mph 57.1% 0 in
20:24 68.5 °F 53.2 °F 30 in NE 6.9 mph 14 mph 58% 0 in
20:29 68.4 °F 53.1 °F 30 in ENE 7.1 mph 14 mph 58.3% 0 in
20:34 68.2 °F 53.2 °F 30.1 in ENE 7.4 mph 14 mph 59% 0 in
20:39 67.8 °F 53.1 °F 30.1 in NE 6.6 mph 14 mph 59% 0 in
20:44 67.8 °F 53.1 °F 30.1 in NE 5.4 mph 12 mph 59% 0 in
20:49 67.6 °F 52.9 °F 30.1 in NE 5.4 mph 11.4 mph 59.2% 0 in
20:54 67.5 °F 53.1 °F 30.1 in NE 5.4 mph 12 mph 60% 0 in
20:59 67.1 °F 52.9 °F 30.1 in NE 5.8 mph 12 mph 60.5% 0 in
21:04 66.7 °F 52.9 °F 30.1 in NE 6.2 mph 12 mph 61% 0 in
21:09 66.6 °F 52.7 °F 30.1 in NE 6.6 mph 13 mph 61.2% 0 in
21:14 66.4 °F 52.9 °F 30.1 in NE 7.4 mph 13 mph 62% 0 in
21:19 66 °F 52.7 °F 30.1 in NE 7.4 mph 13 mph 62% 0 in
21:24 65.8 °F 52.7 °F 30.1 in NE 7.4 mph 13 mph 62.2% 0 in
21:29 65.8 °F 52.9 °F 30.1 in ENE 6.8 mph 10 mph 63% 0 in
21:34 65.7 °F 52.7 °F 30.1 in ENE 5.9 mph 9 mph 63% 0 in
21:39 65.7 °F 52.7 °F 30.1 in Este 4.8 mph 6.9 mph 63% 0 in
21:44 65.5 °F 52.9 °F 30.1 in ENE 3.1 mph 7 mph 63.8% 0 in
21:49 65.5 °F 53.1 °F 30.1 in NNE 2.9 mph 6.4 mph 64% 0 in
21:54 65.1 °F 52.7 °F 30.1 in NE 2.4 mph 8.1 mph 64% 0 in
21:59 64.9 °F 52.5 °F 30.1 in NE 3.8 mph 8.1 mph 64% 0 in
22:04 64.9 °F 52.3 °F 30.1 in NE 5.2 mph 8 mph 64% 0 in
22:09 64.9 °F 52.5 °F 30.1 in NE 4.8 mph 8.1 mph 64% 0 in
22:14 64.8 °F 52.3 °F 30.1 in NE 4.3 mph 8.1 mph 64% 0 in
22:19 64.8 °F 52.2 °F 30.1 in NE 4.5 mph 8.1 mph 64% 0 in
22:24 64.8 °F 52.3 °F 30.1 in NE 4.7 mph 8 mph 64% 0 in
22:29 64.6 °F 52.2 °F 30.1 in NE 4.5 mph 8.5 mph 64% 0 in
22:34 64.4 °F 52 °F 30.1 in NE 4.3 mph 9 mph 64% 0 in
22:39 64.2 °F 52.2 °F 30.1 in NE 4.5 mph 8 mph 65% 0 in
22:44 64 °F 52 °F 30.1 in NE 4.7 mph 7.4 mph 65% 0 in
22:49 63.9 °F 52.2 °F 30.1 in NE 4.7 mph 7.4 mph 65.8% 0 in
22:54 63.7 °F 52.2 °F 30.1 in NE 4.7 mph 8.1 mph 66% 0 in
22:59 63.7 °F 52.2 °F 30.1 in NE 4.7 mph 8 mph 66% 0 in
23:04 63.7 °F 52 °F 30.1 in NE 4.7 mph 7.4 mph 66.1% 0 in
23:09 63.5 °F 52.3 °F 30.1 in NNE 4.5 mph 7 mph 67% 0 in
23:14 63.3 °F 52.3 °F 30.1 in NE 4.3 mph 6.2 mph 67.5% 0 in
23:19 63.1 °F 52.3 °F 30.1 in NNE 4 mph 6 mph 68% 0 in
23:24 63 °F 52.3 °F 30.1 in NE 3.6 mph 6 mph 68% 0 in
23:29 63 °F 52.5 °F 30.1 in NE 3.4 mph 5 mph 68.8% 0 in
23:34 62.8 °F 52.5 °F 30.1 in NE 3.1 mph 5.9 mph 69% 0 in
23:39 62.8 °F 52.5 °F 30.1 in NE 3.3 mph 6.2 mph 69% 0 in
23:44 62.6 °F 52.3 °F 30.1 in NE 3.6 mph 6 mph 69% 0 in
23:49 62.4 °F 52.5 °F 30.1 in NE 3.7 mph 7.4 mph 69.9% 0 in
23:54 62.4 °F 52.5 °F 30.1 in NE 4 mph 7 mph 70% 0 in
23:59 62.4 °F 52.5 °F 30.1 in NE 4.2 mph 6.9 mph 70% 0 in
Murcia-Puente Tocinos, España
Compliments of Weather Underground - 2.75 mb

La estación de MeteoMurcia.com, publica sus datos en los siguientes proyectos:

Weather Underground PWS IMURCIAP2 Meteoclimatic www.awekas.at

W3Counter
Web Analytics